sensor_id;sensor_type;location;lat;lon;timestamp;pressure;altitude;pressure_sealevel;temperature;humidity
10460;BME280;54412;51.206;6.888;2023-03-11T00:00:24;99855.88;;;4.76;74.24
10460;BME280;54412;51.206;6.888;2023-03-11T00:02:53;99857.28;;;4.84;74.27
10460;BME280;54412;51.206;6.888;2023-03-11T00:05:26;99876.72;;;4.77;74.08
10460;BME280;54412;51.206;6.888;2023-03-11T00:07:53;99871.63;;;4.96;73.82
10460;BME280;54412;51.206;6.888;2023-03-11T00:10:29;99871.78;;;4.91;73.73
10460;BME280;54412;51.206;6.888;2023-03-11T00:12:57;99884.88;;;4.91;73.28
10460;BME280;54412;51.206;6.888;2023-03-11T00:15:23;99886.75;;;4.88;72.47
10460;BME280;54412;51.206;6.888;2023-03-11T00:17:49;99885.00;;;4.88;73.22
10460;BME280;54412;51.206;6.888;2023-03-11T00:20:38;99896.53;;;4.60;73.22
10460;BME280;54412;51.206;6.888;2023-03-11T00:23:06;99889.72;;;4.79;72.88
10460;BME280;54412;51.206;6.888;2023-03-11T00:25:36;99887.81;;;4.82;73.13
10460;BME280;54412;51.206;6.888;2023-03-11T00:28:04;99903.84;;;4.73;72.54
10460;BME280;54412;51.206;6.888;2023-03-11T00:30:32;99910.25;;;4.88;71.83
10460;BME280;54412;51.206;6.888;2023-03-11T00:32:58;99917.72;;;4.75;72.47
10460;BME280;54412;51.206;6.888;2023-03-11T00:35:28;99915.94;;;4.99;71.36
10460;BME280;54412;51.206;6.888;2023-03-11T00:37:58;99911.81;;;4.70;72.83
10460;BME280;54412;51.206;6.888;2023-03-11T00:40:29;99923.66;;;4.79;71.77
10460;BME280;54412;51.206;6.888;2023-03-11T00:42:55;99919.66;;;4.70;72.73
10460;BME280;54412;51.206;6.888;2023-03-11T00:45:22;99921.31;;;4.73;71.69
10460;BME280;54412;51.206;6.888;2023-03-11T00:47:49;99927.13;;;4.79;70.95
10460;BME280;54412;51.206;6.888;2023-03-11T00:50:20;99929.34;;;4.67;71.80
10460;BME280;54412;51.206;6.888;2023-03-11T00:52:47;99923.41;;;4.63;72.37
10460;BME280;54412;51.206;6.888;2023-03-11T00:55:19;99931.16;;;4.65;72.54
10460;BME280;54412;51.206;6.888;2023-03-11T00:57:45;99946.78;;;4.89;70.18
10460;BME280;54412;51.206;6.888;2023-03-11T01:00:15;99940.19;;;4.79;71.04
10460;BME280;54412;51.206;6.888;2023-03-11T01:02:41;99946.28;;;4.80;70.98
10460;BME280;54412;51.206;6.888;2023-03-11T01:05:08;99949.47;;;4.65;72.37
10460;BME280;54412;51.206;6.888;2023-03-11T01:07:34;99943.63;;;4.81;71.65
10460;BME280;54412;51.206;6.888;2023-03-11T01:10:00;99955.00;;;4.79;71.58
10460;BME280;54412;51.206;6.888;2023-03-11T01:12:26;99948.91;;;4.80;70.84
10460;BME280;54412;51.206;6.888;2023-03-11T01:14:52;99958.88;;;4.92;70.56
10460;BME280;54412;51.206;6.888;2023-03-11T01:17:18;99957.69;;;4.77;71.32
10460;BME280;54412;51.206;6.888;2023-03-11T01:19:43;99953.25;;;4.56;72.15
10460;BME280;54412;51.206;6.888;2023-03-11T01:22:09;99952.31;;;4.59;73.13
10460;BME280;54412;51.206;6.888;2023-03-11T01:24:35;99953.88;;;4.63;71.98
10460;BME280;54412;51.206;6.888;2023-03-11T01:27:01;99954.16;;;4.55;73.16
10460;BME280;54412;51.206;6.888;2023-03-11T01:29:26;99951.44;;;4.81;72.07
10460;BME280;54412;51.206;6.888;2023-03-11T01:31:52;99953.53;;;4.72;72.44
10460;BME280;54412;51.206;6.888;2023-03-11T01:34:18;99962.50;;;4.88;71.73
10460;BME280;54412;51.206;6.888;2023-03-11T01:36:43;99963.66;;;4.81;71.62
10460;BME280;54412;51.206;6.888;2023-03-11T01:39:09;99966.84;;;4.89;71.42
10460;BME280;54412;51.206;6.888;2023-03-11T01:41:35;99972.16;;;4.86;71.41
10460;BME280;54412;51.206;6.888;2023-03-11T01:44:00;99973.22;;;4.82;72.40
10460;BME280;54412;51.206;6.888;2023-03-11T01:49:25;99976.72;;;4.81;72.20
10460;BME280;54412;51.206;6.888;2023-03-11T01:52:02;99980.91;;;5.08;71.18
10460;BME280;54412;51.206;6.888;2023-03-11T01:54:37;99975.13;;;4.77;72.75
10460;BME280;54412;51.206;6.888;2023-03-11T01:57:08;99980.97;;;4.60;72.89
10460;BME280;54412;51.206;6.888;2023-03-11T01:59:42;99975.84;;;4.57;73.87
10460;BME280;54412;51.206;6.888;2023-03-11T02:02:27;99984.06;;;4.71;73.36
10460;BME280;54412;51.206;6.888;2023-03-11T02:04:58;99984.69;;;4.78;73.51
10460;BME280;54412;51.206;6.888;2023-03-11T02:07:25;99985.88;;;4.69;73.56
10460;BME280;54412;51.206;6.888;2023-03-11T02:09:51;99991.56;;;5.03;71.79
10460;BME280;54412;51.206;6.888;2023-03-11T02:12:17;99981.06;;;4.80;72.97
10460;BME280;54412;51.206;6.888;2023-03-11T02:14:47;99988.97;;;5.02;71.33
10460;BME280;54412;51.206;6.888;2023-03-11T02:17:15;99979.31;;;4.81;71.58
10460;BME280;54412;51.206;6.888;2023-03-11T02:20:01;99987.41;;;4.75;71.64
10460;BME280;54412;51.206;6.888;2023-03-11T02:22:31;99986.72;;;4.93;70.60
10460;BME280;54412;51.206;6.888;2023-03-11T02:25:37;99980.34;;;4.77;70.43
10460;BME280;54412;51.206;6.888;2023-03-11T02:28:09;99988.50;;;4.68;71.33
10460;BME280;54412;51.206;6.888;2023-03-11T02:30:38;99977.84;;;4.74;70.97
10460;BME280;54412;51.206;6.888;2023-03-11T02:33:05;99983.19;;;4.71;70.98
10460;BME280;54412;51.206;6.888;2023-03-11T02:35:31;99986.88;;;4.65;70.89
10460;BME280;54412;51.206;6.888;2023-03-11T02:37:57;99988.25;;;4.98;69.32
10460;BME280;54412;51.206;6.888;2023-03-11T02:42:55;99996.53;;;4.63;70.10
10460;BME280;54412;51.206;6.888;2023-03-11T02:45:24;99995.44;;;4.46;70.63
10460;BME280;54412;51.206;6.888;2023-03-11T02:47:53;100002.56;;;4.41;70.94
10460;BME280;54412;51.206;6.888;2023-03-11T02:50:20;100002.69;;;4.61;69.78
10460;BME280;54412;51.206;6.888;2023-03-11T02:52:50;100007.25;;;4.56;69.60
10460;BME280;54412;51.206;6.888;2023-03-11T02:55:17;100005.91;;;4.69;68.88
10460;BME280;54412;51.206;6.888;2023-03-11T02:57:46;99998.19;;;4.41;69.69
10460;BME280;54412;51.206;6.888;2023-03-11T03:00:14;99998.34;;;4.37;69.55
10460;BME280;54412;51.206;6.888;2023-03-11T03:02:42;100008.25;;;4.52;68.39
10460;BME280;54412;51.206;6.888;2023-03-11T03:05:11;100003.91;;;4.28;69.58
10460;BME280;54412;51.206;6.888;2023-03-11T03:07:37;100009.53;;;4.15;70.14
10460;BME280;54412;51.206;6.888;2023-03-11T03:10:05;100012.41;;;4.33;69.79
10460;BME280;54412;51.206;6.888;2023-03-11T03:12:31;100016.94;;;4.52;68.84
10460;BME280;54412;51.206;6.888;2023-03-11T03:14:57;100015.22;;;4.26;68.31
10460;BME280;54412;51.206;6.888;2023-03-11T03:17:23;100018.13;;;4.19;69.45
10460;BME280;54412;51.206;6.888;2023-03-11T03:19:49;100014.75;;;4.15;68.39
10460;BME280;54412;51.206;6.888;2023-03-11T03:22:15;100016.66;;;4.10;69.37
10460;BME280;54412;51.206;6.888;2023-03-11T03:24:41;100019.97;;;4.15;69.40
10460;BME280;54412;51.206;6.888;2023-03-11T03:27:07;100021.63;;;4.18;68.49
10460;BME280;54412;51.206;6.888;2023-03-11T03:29:32;100022.69;;;4.12;68.38
10460;BME280;54412;51.206;6.888;2023-03-11T03:31:58;100023.97;;;3.99;69.00
10460;BME280;54412;51.206;6.888;2023-03-11T03:34:24;100022.31;;;4.23;68.20
10460;BME280;54412;51.206;6.888;2023-03-11T03:36:49;100027.09;;;4.10;68.35
10460;BME280;54412;51.206;6.888;2023-03-11T03:39:15;100028.00;;;3.83;69.46
10460;BME280;54412;51.206;6.888;2023-03-11T03:41:43;100032.69;;;4.24;67.86
10460;BME280;54412;51.206;6.888;2023-03-11T03:44:08;100031.56;;;4.07;68.28
10460;BME280;54412;51.206;6.888;2023-03-11T03:46:34;100030.28;;;3.94;68.58
10460;BME280;54412;51.206;6.888;2023-03-11T03:49:00;100043.66;;;4.09;67.79
10460;BME280;54412;51.206;6.888;2023-03-11T03:51:25;100047.56;;;3.96;68.86
10460;BME280;54412;51.206;6.888;2023-03-11T03:53:51;100056.19;;;3.98;68.57
10460;BME280;54412;51.206;6.888;2023-03-11T03:56:17;100055.44;;;3.95;68.86
10460;BME280;54412;51.206;6.888;2023-03-11T03:58:43;100050.41;;;3.89;68.58
10460;BME280;54412;51.206;6.888;2023-03-11T04:01:10;100055.63;;;3.89;68.88
10460;BME280;54412;51.206;6.888;2023-03-11T04:03:36;100065.47;;;3.81;68.99
10460;BME280;54412;51.206;6.888;2023-03-11T04:06:08;100065.38;;;3.84;69.04
10460;BME280;54412;51.206;6.888;2023-03-11T04:08:35;100063.03;;;3.75;68.17
10460;BME280;54412;51.206;6.888;2023-03-11T04:11:01;100074.69;;;3.65;68.86
10460;BME280;54412;51.206;6.888;2023-03-11T04:13:26;100078.66;;;3.76;69.10
10460;BME280;54412;51.206;6.888;2023-03-11T04:15:52;100074.97;;;3.56;69.07
10460;BME280;54412;51.206;6.888;2023-03-11T04:18:18;100087.22;;;3.80;68.03
10460;BME280;54412;51.206;6.888;2023-03-11T04:20:43;100085.66;;;3.74;68.59
10460;BME280;54412;51.206;6.888;2023-03-11T04:23:09;100088.53;;;3.65;68.61
10460;BME280;54412;51.206;6.888;2023-03-11T04:25:35;100095.50;;;3.66;69.27
10460;BME280;54412;51.206;6.888;2023-03-11T04:28:01;100090.75;;;3.79;69.01
10460;BME280;54412;51.206;6.888;2023-03-11T04:30:26;100092.59;;;3.75;69.12
10460;BME280;54412;51.206;6.888;2023-03-11T04:32:52;100096.47;;;3.62;69.35
10460;BME280;54412;51.206;6.888;2023-03-11T04:35:17;100096.09;;;3.47;69.12
10460;BME280;54412;51.206;6.888;2023-03-11T04:37:43;100098.97;;;3.67;68.97
10460;BME280;54412;51.206;6.888;2023-03-11T04:40:10;100102.34;;;3.69;68.54
10460;BME280;54412;51.206;6.888;2023-03-11T04:42:36;100111.13;;;3.66;68.54
10460;BME280;54412;51.206;6.888;2023-03-11T04:45:01;100111.94;;;3.68;67.77
10460;BME280;54412;51.206;6.888;2023-03-11T04:47:27;100116.13;;;3.74;68.49
10460;BME280;54412;51.206;6.888;2023-03-11T04:49:53;100118.00;;;3.69;68.88
10460;BME280;54412;51.206;6.888;2023-03-11T04:52:21;100121.63;;;3.65;68.72
10460;BME280;54412;51.206;6.888;2023-03-11T04:54:47;100119.28;;;3.56;69.16
10460;BME280;54412;51.206;6.888;2023-03-11T04:57:12;100121.41;;;3.72;68.27
10460;BME280;54412;51.206;6.888;2023-03-11T04:59:38;100119.63;;;3.73;68.41
10460;BME280;54412;51.206;6.888;2023-03-11T05:02:04;100125.81;;;3.69;68.11
10460;BME280;54412;51.206;6.888;2023-03-11T05:04:30;100130.91;;;3.73;68.43
10460;BME280;54412;51.206;6.888;2023-03-11T05:06:55;100127.59;;;3.68;68.17
10460;BME280;54412;51.206;6.888;2023-03-11T05:09:21;100129.00;;;3.78;67.29
10460;BME280;54412;51.206;6.888;2023-03-11T05:11:47;100131.66;;;3.77;67.73
10460;BME280;54412;51.206;6.888;2023-03-11T05:14:12;100131.56;;;3.52;67.90
10460;BME280;54412;51.206;6.888;2023-03-11T05:16:38;100131.81;;;3.43;68.43
10460;BME280;54412;51.206;6.888;2023-03-11T05:19:04;100135.63;;;3.61;68.43
10460;BME280;54412;51.206;6.888;2023-03-11T05:21:50;100137.31;;;3.62;67.85
10460;BME280;54412;51.206;6.888;2023-03-11T05:24:15;100142.81;;;3.53;68.63
10460;BME280;54412;51.206;6.888;2023-03-11T05:26:41;100146.13;;;3.59;68.24
10460;BME280;54412;51.206;6.888;2023-03-11T05:29:08;100147.31;;;3.77;67.68
10460;BME280;54412;51.206;6.888;2023-03-11T05:31:33;100150.38;;;3.62;67.54
10460;BME280;54412;51.206;6.888;2023-03-11T05:33:59;100149.84;;;3.51;68.52
10460;BME280;54412;51.206;6.888;2023-03-11T05:36:25;100148.28;;;3.45;68.71
10460;BME280;54412;51.206;6.888;2023-03-11T05:38:50;100146.94;;;3.61;68.68
10460;BME280;54412;51.206;6.888;2023-03-11T05:41:18;100153.75;;;3.35;68.93
10460;BME280;54412;51.206;6.888;2023-03-11T05:43:45;100154.25;;;3.49;68.11
10460;BME280;54412;51.206;6.888;2023-03-11T05:46:11;100148.84;;;3.55;68.51
10460;BME280;54412;51.206;6.888;2023-03-11T05:48:37;100159.88;;;3.64;67.99
10460;BME280;54412;51.206;6.888;2023-03-11T05:51:11;100162.38;;;3.67;67.92
10460;BME280;54412;51.206;6.888;2023-03-11T05:53:37;100156.63;;;3.56;68.81
10460;BME280;54412;51.206;6.888;2023-03-11T05:56:04;100160.84;;;3.60;68.78
10460;BME280;54412;51.206;6.888;2023-03-11T05:58:31;100160.81;;;3.62;68.87
10460;BME280;54412;51.206;6.888;2023-03-11T06:00:57;100163.69;;;3.82;68.01
10460;BME280;54412;51.206;6.888;2023-03-11T06:03:26;100170.25;;;3.95;67.33
10460;BME280;54412;51.206;6.888;2023-03-11T06:05:52;100170.19;;;3.96;67.28
10460;BME280;54412;51.206;6.888;2023-03-11T06:08:18;100178.91;;;4.23;66.76
10460;BME280;54412;51.206;6.888;2023-03-11T06:10:44;100171.41;;;4.40;65.58
10460;BME280;54412;51.206;6.888;2023-03-11T06:13:10;100176.34;;;4.49;65.16
10460;BME280;54412;51.206;6.888;2023-03-11T06:15:37;100179.25;;;4.40;66.06
10460;BME280;54412;51.206;6.888;2023-03-11T06:18:03;100178.72;;;4.29;65.71
10460;BME280;54412;51.206;6.888;2023-03-11T06:20:30;100181.81;;;4.42;65.50
10460;BME280;54412;51.206;6.888;2023-03-11T06:22:55;100184.13;;;4.23;66.37
10460;BME280;54412;51.206;6.888;2023-03-11T06:25:21;100179.34;;;4.09;66.01
10460;BME280;54412;51.206;6.888;2023-03-11T06:27:51;100186.97;;;3.88;67.39
10460;BME280;54412;51.206;6.888;2023-03-11T06:30:19;100188.69;;;3.89;67.80
10460;BME280;54412;51.206;6.888;2023-03-11T06:32:45;100195.34;;;3.99;67.94
10460;BME280;54412;51.206;6.888;2023-03-11T06:35:12;100207.03;;;3.86;67.17
10460;BME280;54412;51.206;6.888;2023-03-11T06:37:38;100200.91;;;3.87;68.29
10460;BME280;54412;51.206;6.888;2023-03-11T06:40:06;100208.94;;;3.81;68.38
10460;BME280;54412;51.206;6.888;2023-03-11T06:42:33;100202.72;;;3.85;69.25
10460;BME280;54412;51.206;6.888;2023-03-11T06:44:59;100207.47;;;3.71;70.02
10460;BME280;54412;51.206;6.888;2023-03-11T06:47:25;100207.09;;;3.84;70.05
10460;BME280;54412;51.206;6.888;2023-03-11T06:49:51;100218.81;;;3.99;69.66
10460;BME280;54412;51.206;6.888;2023-03-11T06:52:17;100226.56;;;4.02;69.00
10460;BME280;54412;51.206;6.888;2023-03-11T06:54:43;100230.78;;;4.06;68.52
10460;BME280;54412;51.206;6.888;2023-03-11T06:57:10;100229.31;;;3.97;68.93
10460;BME280;54412;51.206;6.888;2023-03-11T06:59:35;100228.72;;;3.88;69.75
10460;BME280;54412;51.206;6.888;2023-03-11T07:02:03;100248.25;;;4.04;70.14
10460;BME280;54412;51.206;6.888;2023-03-11T07:04:30;100246.94;;;4.18;68.29
10460;BME280;54412;51.206;6.888;2023-03-11T07:06:56;100259.88;;;4.21;67.92
10460;BME280;54412;51.206;6.888;2023-03-11T07:09:22;100267.09;;;4.13;68.78
10460;BME280;54412;51.206;6.888;2023-03-11T07:11:50;100279.72;;;4.27;68.11
10460;BME280;54412;51.206;6.888;2023-03-11T07:14:17;100274.19;;;4.08;68.61
10460;BME280;54412;51.206;6.888;2023-03-11T07:16:44;100275.00;;;4.10;69.47
10460;BME280;54412;51.206;6.888;2023-03-11T07:19:11;100276.53;;;4.17;69.33
10460;BME280;54412;51.206;6.888;2023-03-11T07:21:38;100273.28;;;4.39;68.74
10460;BME280;54412;51.206;6.888;2023-03-11T07:24:05;100278.84;;;4.56;67.86
10460;BME280;54412;51.206;6.888;2023-03-11T07:26:33;100275.75;;;4.43;66.94
10460;BME280;54412;51.206;6.888;2023-03-11T07:29:00;100285.22;;;4.73;66.95
10460;BME280;54412;51.206;6.888;2023-03-11T07:31:32;100284.47;;;4.70;66.36
10460;BME280;54412;51.206;6.888;2023-03-11T07:34:01;100297.53;;;4.70;65.74
10460;BME280;54412;51.206;6.888;2023-03-11T07:36:28;100298.34;;;4.72;66.18
10460;BME280;54412;51.206;6.888;2023-03-11T07:38:56;100313.41;;;5.17;65.64
10460;BME280;54412;51.206;6.888;2023-03-11T07:41:30;100312.31;;;5.24;64.73
10460;BME280;54412;51.206;6.888;2023-03-11T07:43:58;100317.28;;;5.57;62.88
10460;BME280;54412;51.206;6.888;2023-03-11T07:46:27;100321.56;;;6.08;60.16
10460;BME280;54412;51.206;6.888;2023-03-11T07:48:53;100322.97;;;5.69;61.71
10460;BME280;54412;51.206;6.888;2023-03-11T07:51:26;100327.41;;;5.92;62.58
10460;BME280;54412;51.206;6.888;2023-03-11T07:53:55;100327.44;;;6.38;60.83
10460;BME280;54412;51.206;6.888;2023-03-11T07:56:22;100339.31;;;6.70;59.68
10460;BME280;54412;51.206;6.888;2023-03-11T07:58:50;100333.88;;;6.53;60.51
10460;BME280;54412;51.206;6.888;2023-03-11T08:01:21;100340.16;;;6.70;60.56
10460;BME280;54412;51.206;6.888;2023-03-11T08:03:50;100338.72;;;7.06;59.31
10460;BME280;54412;51.206;6.888;2023-03-11T08:06:30;100345.28;;;7.16;59.51
10460;BME280;54412;51.206;6.888;2023-03-11T08:08:58;100349.50;;;7.20;57.97
10460;BME280;54412;51.206;6.888;2023-03-11T08:11:24;100351.16;;;7.43;57.73
10460;BME280;54412;51.206;6.888;2023-03-11T08:13:51;100352.78;;;7.87;54.88
10460;BME280;54412;51.206;6.888;2023-03-11T08:16:20;100345.16;;;7.81;55.39
10460;BME280;54412;51.206;6.888;2023-03-11T08:18:49;100346.88;;;7.62;56.25
10460;BME280;54412;51.206;6.888;2023-03-11T08:21:18;100347.38;;;7.90;55.39
10460;BME280;54412;51.206;6.888;2023-03-11T08:23:44;100351.97;;;8.05;53.57
10460;BME280;54412;51.206;6.888;2023-03-11T08:26:17;100360.03;;;7.81;53.43
10460;BME280;54412;51.206;6.888;2023-03-11T08:28:44;100357.84;;;7.72;53.99
10460;BME280;54412;51.206;6.888;2023-03-11T08:31:18;100355.00;;;7.76;54.46
10460;BME280;54412;51.206;6.888;2023-03-11T08:33:47;100353.69;;;8.45;52.54
10460;BME280;54412;51.206;6.888;2023-03-11T08:36:19;100348.88;;;8.36;53.28
10460;BME280;54412;51.206;6.888;2023-03-11T08:38:46;100361.66;;;8.81;51.18
10460;BME280;54412;51.206;6.888;2023-03-11T08:41:12;100357.84;;;8.51;51.92
10460;BME280;54412;51.206;6.888;2023-03-11T08:43:38;100359.19;;;8.59;52.28
10460;BME280;54412;51.206;6.888;2023-03-11T08:46:05;100366.13;;;8.97;50.11
10460;BME280;54412;51.206;6.888;2023-03-11T08:48:32;100353.41;;;8.88;50.43
10460;BME280;54412;51.206;6.888;2023-03-11T08:50:58;100358.63;;;9.07;50.86
10460;BME280;54412;51.206;6.888;2023-03-11T08:53:24;100355.28;;;9.22;51.30
10460;BME280;54412;51.206;6.888;2023-03-11T08:55:51;100356.47;;;9.33;49.36
10460;BME280;54412;51.206;6.888;2023-03-11T08:58:18;100353.47;;;9.58;48.13
10460;BME280;54412;51.206;6.888;2023-03-11T09:00:44;100351.19;;;9.50;48.69
10460;BME280;54412;51.206;6.888;2023-03-11T09:03:10;100360.19;;;9.81;46.00
10460;BME280;54412;51.206;6.888;2023-03-11T09:05:36;100360.03;;;9.84;45.74
10460;BME280;54412;51.206;6.888;2023-03-11T09:08:02;100365.06;;;10.05;45.09
10460;BME280;54412;51.206;6.888;2023-03-11T09:10:29;100380.78;;;9.90;44.47
10460;BME280;54412;51.206;6.888;2023-03-11T09:12:54;100371.41;;;9.84;46.36
10460;BME280;54412;51.206;6.888;2023-03-11T09:15:20;100368.69;;;10.03;47.27
10460;BME280;54412;51.206;6.888;2023-03-11T09:17:46;100364.47;;;10.33;44.41
10460;BME280;54412;51.206;6.888;2023-03-11T09:20:14;100363.75;;;10.46;45.55
10460;BME280;54412;51.206;6.888;2023-03-11T09:22:40;100366.06;;;10.52;43.95
10460;BME280;54412;51.206;6.888;2023-03-11T09:25:06;100356.81;;;10.61;43.81
10460;BME280;54412;51.206;6.888;2023-03-11T09:27:32;100364.63;;;10.14;42.97
10460;BME280;54412;51.206;6.888;2023-03-11T09:29:58;100362.13;;;9.60;41.37
10460;BME280;54412;51.206;6.888;2023-03-11T09:32:23;100369.66;;;9.32;42.76
10460;BME280;54412;51.206;6.888;2023-03-11T09:34:49;100371.16;;;8.83;43.80
10460;BME280;54412;51.206;6.888;2023-03-11T09:37:15;100370.13;;;9.23;43.64
10460;BME280;54412;51.206;6.888;2023-03-11T09:39:40;100358.78;;;9.74;43.54
10460;BME280;54412;51.206;6.888;2023-03-11T09:45:21;100370.00;;;10.92;39.22
10460;BME280;54412;51.206;6.888;2023-03-11T09:48:53;100382.50;;;10.25;39.13
10460;BME280;54412;51.206;6.888;2023-03-11T09:51:29;100379.06;;;9.37;39.64
10460;BME280;54412;51.206;6.888;2023-03-11T09:54:03;100389.25;;;8.72;41.98
10460;BME280;54412;51.206;6.888;2023-03-11T09:56:33;100386.38;;;8.39;41.85
10460;BME280;54412;51.206;6.888;2023-03-11T09:59:26;100385.31;;;8.43;43.43
10460;BME280;54412;51.206;6.888;2023-03-11T10:01:54;100391.31;;;8.07;42.10
10460;BME280;54412;51.206;6.888;2023-03-11T10:04:49;100382.78;;;7.82;42.76
10460;BME280;54412;51.206;6.888;2023-03-11T10:07:22;100401.59;;;8.31;42.83
10460;BME280;54412;51.206;6.888;2023-03-11T10:09:53;100400.75;;;8.88;43.68
10460;BME280;54412;51.206;6.888;2023-03-11T10:12:42;100392.22;;;9.37;41.50
10460;BME280;54412;51.206;6.888;2023-03-11T10:15:39;100401.56;;;9.96;41.11
10460;BME280;54412;51.206;6.888;2023-03-11T10:18:25;100406.31;;;9.36;43.18
10460;BME280;54412;51.206;6.888;2023-03-11T10:22:07;100403.13;;;9.30;42.20
10460;BME280;54412;51.206;6.888;2023-03-11T10:24:59;100409.19;;;8.58;44.28
10460;BME280;54412;51.206;6.888;2023-03-11T10:27:48;100412.94;;;8.52;42.85
10460;BME280;54412;51.206;6.888;2023-03-11T10:30:42;100414.28;;;8.22;45.55
10460;BME280;54412;51.206;6.888;2023-03-11T10:33:36;100412.44;;;8.44;43.71
10460;BME280;54412;51.206;6.888;2023-03-11T10:36:10;100407.31;;;9.34;44.43
10460;BME280;54412;51.206;6.888;2023-03-11T10:38:43;100408.47;;;9.98;40.78
10460;BME280;54412;51.206;6.888;2023-03-11T10:41:25;100413.28;;;10.24;39.83
10460;BME280;54412;51.206;6.888;2023-03-11T10:44:13;100421.22;;;10.40;37.89
10460;BME280;54412;51.206;6.888;2023-03-11T10:46:40;100417.22;;;9.82;39.26
10460;BME280;54412;51.206;6.888;2023-03-11T10:49:15;100431.19;;;8.94;40.04
10460;BME280;54412;51.206;6.888;2023-03-11T10:51:48;100431.72;;;8.82;40.75
10460;BME280;54412;51.206;6.888;2023-03-11T10:54:40;100426.28;;;8.86;40.32
10460;BME280;54412;51.206;6.888;2023-03-11T10:57:34;100423.84;;;8.63;40.59
10460;BME280;54412;51.206;6.888;2023-03-11T11:00:04;100417.34;;;8.52;41.60
10460;BME280;54412;51.206;6.888;2023-03-11T11:02:54;100414.56;;;8.55;41.12
10460;BME280;54412;51.206;6.888;2023-03-11T11:05:30;100404.34;;;8.67;39.54
10460;BME280;54412;51.206;6.888;2023-03-11T11:08:06;100407.94;;;8.85;41.83
10460;BME280;54412;51.206;6.888;2023-03-11T11:10:35;100412.97;;;8.89;40.48
10460;BME280;54412;51.206;6.888;2023-03-11T11:16:17;100416.38;;;8.54;40.99
10460;BME280;54412;51.206;6.888;2023-03-11T11:18:49;100414.38;;;8.59;41.68
10460;BME280;54412;51.206;6.888;2023-03-11T11:21:39;100414.94;;;8.47;39.74
10460;BME280;54412;51.206;6.888;2023-03-11T11:24:11;100407.88;;;8.48;40.11
10460;BME280;54412;51.206;6.888;2023-03-11T11:26:39;100406.75;;;8.53;40.54
10460;BME280;54412;51.206;6.888;2023-03-11T11:31:40;100418.47;;;8.85;40.87
10460;BME280;54412;51.206;6.888;2023-03-11T11:34:32;100418.44;;;8.66;42.37
10460;BME280;54412;51.206;6.888;2023-03-11T11:37:03;100419.22;;;8.68;41.86
10460;BME280;54412;51.206;6.888;2023-03-11T11:39:45;100423.84;;;9.00;40.73
10460;BME280;54412;51.206;6.888;2023-03-11T11:42:18;100424.19;;;8.93;41.20
10460;BME280;54412;51.206;6.888;2023-03-11T11:44:50;100424.84;;;8.98;41.24
10460;BME280;54412;51.206;6.888;2023-03-11T11:47:40;100423.50;;;9.43;38.91
10460;BME280;54412;51.206;6.888;2023-03-11T11:53:01;100412.19;;;9.24;40.28
10460;BME280;54412;51.206;6.888;2023-03-11T11:55:30;100404.13;;;9.27;39.56
10460;BME280;54412;51.206;6.888;2023-03-11T11:57:56;100407.72;;;9.08;39.97
10460;BME280;54412;51.206;6.888;2023-03-11T12:00:40;100413.09;;;9.05;39.58
10460;BME280;54412;51.206;6.888;2023-03-11T12:03:38;100417.03;;;8.78;39.95
10460;BME280;54412;51.206;6.888;2023-03-11T12:11:56;100418.09;;;8.35;41.73
10460;BME280;54412;51.206;6.888;2023-03-11T12:14:52;100419.97;;;8.52;41.99
10460;BME280;54412;51.206;6.888;2023-03-11T12:17:23;100419.41;;;8.45;42.29
10460;BME280;54412;51.206;6.888;2023-03-11T12:20:17;100432.56;;;8.64;40.90
10460;BME280;54412;51.206;6.888;2023-03-11T12:26:00;100434.06;;;8.69;39.33
10460;BME280;54412;51.206;6.888;2023-03-11T12:31:37;100422.81;;;9.40;38.39
10460;BME280;54412;51.206;6.888;2023-03-11T12:34:09;100420.78;;;9.28;38.87
10460;BME280;54412;51.206;6.888;2023-03-11T12:36:41;100429.66;;;9.07;39.29
10460;BME280;54412;51.206;6.888;2023-03-11T12:39:37;100428.06;;;9.40;40.21
10460;BME280;54412;51.206;6.888;2023-03-11T12:42:21;100419.13;;;9.25;41.38
10460;BME280;54412;51.206;6.888;2023-03-11T12:44:50;100429.03;;;8.65;39.62
10460;BME280;54412;51.206;6.888;2023-03-11T12:47:24;100424.78;;;8.42;39.74
10460;BME280;54412;51.206;6.888;2023-03-11T12:53:00;100435.34;;;8.61;39.29
10460;BME280;54412;51.206;6.888;2023-03-11T12:55:33;100431.44;;;8.30;41.08
10460;BME280;54412;51.206;6.888;2023-03-11T12:58:35;100430.22;;;8.76;40.08
10460;BME280;54412;51.206;6.888;2023-03-11T13:04:08;100423.59;;;9.42;39.40
10460;BME280;54412;51.206;6.888;2023-03-11T13:07:11;100407.59;;;10.65;39.01
10460;BME280;54412;51.206;6.888;2023-03-11T13:09:44;100405.81;;;10.65;39.49
10460;BME280;54412;51.206;6.888;2023-03-11T13:12:48;100412.22;;;10.77;36.23
10460;BME280;54412;51.206;6.888;2023-03-11T13:18:24;100397.66;;;11.32;35.89
10460;BME280;54412;51.206;6.888;2023-03-11T13:20:56;100403.16;;;11.74;35.93
10460;BME280;54412;51.206;6.888;2023-03-11T13:23:37;100405.06;;;12.16;34.92
10460;BME280;54412;51.206;6.888;2023-03-11T13:26:39;100399.97;;;11.22;33.61
10460;BME280;54412;51.206;6.888;2023-03-11T13:32:48;100405.56;;;13.33;34.02
10460;BME280;54412;51.206;6.888;2023-03-11T13:36:02;100402.22;;;13.17;32.78
10460;BME280;54412;51.206;6.888;2023-03-11T13:41:54;100399.13;;;12.83;33.53
10460;BME280;54412;51.206;6.888;2023-03-11T13:47:04;100411.72;;;12.51;33.17
10460;BME280;54412;51.206;6.888;2023-03-11T13:49:40;100404.63;;;12.66;33.62
10460;BME280;54412;51.206;6.888;2023-03-11T13:52:25;100406.69;;;12.89;32.46
10460;BME280;54412;51.206;6.888;2023-03-11T13:54:58;100414.25;;;11.65;32.82
10460;BME280;54412;51.206;6.888;2023-03-11T13:57:31;100402.34;;;10.96;34.99
10460;BME280;54412;51.206;6.888;2023-03-11T14:00:14;100411.94;;;11.59;33.89
10460;BME280;54412;51.206;6.888;2023-03-11T14:03:03;100414.75;;;11.56;32.89
10460;BME280;54412;51.206;6.888;2023-03-11T14:05:44;100414.84;;;12.00;33.11
10460;BME280;54412;51.206;6.888;2023-03-11T14:08:39;100420.56;;;12.22;33.68
10460;BME280;54412;51.206;6.888;2023-03-11T14:13:48;100421.63;;;11.58;33.37